Time;durP1;ratioP1;P1;durP2;ratioP2;P2;SDS_P1;SDS_P2;PMS_P1;PMS_P2;Temp;Humidity;BMP_temperature;BMP_pressure;BME280_temperature;BME280_humidity;BME280_pressure;Samples;Min_cycle;Max_cycle;Signal;HPM_P1;HPM_P2
2023/11/08 00:01:09;;;;;;;11.90;11.10;;;5.80;99.90;;;;;;4851231;29;20299;-77
2023/11/08 00:03:36;;;;;;;11.97;10.97;;;5.70;99.90;;;;;;4854318;29;20214;-77
2023/11/08 00:06:05;;;;;;;11.77;11.07;;;5.70;99.90;;;;;;4852660;29;20260;-78
2023/11/08 00:08:31;;;;;;;12.07;11.37;;;5.70;99.90;;;;;;4856820;29;20211;-78
2023/11/08 00:10:58;;;;;;;12.13;11.33;;;5.70;99.90;;;;;;4853389;29;20210;-77
2023/11/08 00:13:25;;;;;;;12.20;11.40;;;5.70;99.90;;;;;;4856724;29;20270;-77
2023/11/08 00:15:52;;;;;;;13.17;12.20;;;5.70;99.90;;;;;;4858884;29;20216;-77
2023/11/08 00:18:19;;;;;;;12.63;11.83;;;5.60;99.90;;;;;;4856094;29;20212;-77
2023/11/08 00:20:45;;;;;;;13.00;12.00;;;5.60;99.90;;;;;;4860876;29;20645;-77
2023/11/08 00:23:14;;;;;;;12.77;11.97;;;5.50;99.90;;;;;;4850596;29;20218;-77
2023/11/08 00:25:40;;;;;;;12.57;11.57;;;5.50;99.90;;;;;;4851126;29;20210;-77
2023/11/08 00:28:07;;;;;;;12.60;11.80;;;5.30;99.90;;;;;;4865457;29;20640;-78
2023/11/08 00:30:34;;;;;;;12.13;11.43;;;5.20;99.90;;;;;;4862361;29;20212;-77
2023/11/08 00:33:01;;;;;;;12.57;11.53;;;5.10;99.90;;;;;;4858778;29;20240;-78
2023/11/08 00:35:27;;;;;;;12.23;11.43;;;5.00;99.90;;;;;;4858419;29;20212;-78
2023/11/08 00:37:54;;;;;;;12.37;11.53;;;5.00;99.90;;;;;;4856072;29;20233;-77
2023/11/08 00:40:22;;;;;;;11.90;11.17;;;4.90;99.90;;;;;;4854046;29;20201;-78
2023/11/08 00:42:49;;;;;;;12.40;11.70;;;4.90;99.90;;;;;;4855896;29;20219;-77
2023/11/08 00:45:16;;;;;;;11.90;11.20;;;4.90;99.90;;;;;;4851459;29;20203;-77
2023/11/08 00:47:44;;;;;;;13.17;11.90;;;4.90;99.90;;;;;;4854545;29;20225;-77
2023/11/08 00:50:11;;;;;;;11.97;11.20;;;4.90;99.90;;;;;;4858752;29;20215;-78
2023/11/08 00:52:38;;;;;;;12.30;11.50;;;5.00;99.90;;;;;;4861515;29;20679;-77
2023/11/08 00:55:06;;;;;;;12.03;11.33;;;5.10;99.90;;;;;;4857246;29;20248;-77
2023/11/08 00:57:34;;;;;;;12.00;11.20;;;5.20;99.90;;;;;;4855426;29;20225;-78
2023/11/08 01:00:01;;;;;;;11.90;11.10;;;5.30;99.90;;;;;;4855238;29;20232;-77
2023/11/08 01:02:28;;;;;;;11.30;10.67;;;5.30;99.90;;;;;;4857640;29;20704;-78
2023/11/08 01:04:54;;;;;;;12.00;11.20;;;5.40;99.90;;;;;;4852469;29;20257;-78
2023/11/08 01:07:21;;;;;;;12.20;11.40;;;5.50;99.90;;;;;;4856923;29;20233;-78
2023/11/08 01:09:48;;;;;;;12.57;11.50;;;5.60;99.90;;;;;;4862970;29;20199;-77
2023/11/08 01:12:15;;;;;;;12.20;11.33;;;5.70;99.90;;;;;;4857969;29;20208;-78
2023/11/08 01:14:43;;;;;;;13.10;12.30;;;5.70;99.90;;;;;;4856743;29;20208;-78
2023/11/08 01:17:10;;;;;;;12.67;11.87;;;5.80;99.90;;;;;;4853522;29;20239;-78
2023/11/08 01:19:37;;;;;;;12.50;11.50;;;5.80;99.90;;;;;;4856820;29;20201;-77
2023/11/08 01:22:05;;;;;;;12.00;11.20;;;5.90;99.90;;;;;;4856427;29;20206;-78
2023/11/08 01:24:32;;;;;;;11.70;11.00;;;6.00;99.90;;;;;;4857951;29;20236;-79
2023/11/08 01:27:00;;;;;;;11.80;11.00;;;6.00;99.90;;;;;;4856203;29;20671;-77
2023/11/08 01:29:26;;;;;;;11.73;10.93;;;6.00;99.90;;;;;;4854229;29;20618;-79
2023/11/08 01:31:56;;;;;;;11.53;10.73;;;6.00;99.90;;;;;;4855973;29;20213;-78
2023/11/08 01:34:23;;;;;;;11.57;10.90;;;6.10;99.90;;;;;;4852117;29;20208;-79
2023/11/08 01:36:49;;;;;;;12.00;11.00;;;6.20;99.90;;;;;;4853714;29;20584;-77
2023/11/08 01:39:17;;;;;;;12.00;11.20;;;6.20;99.90;;;;;;4861403;29;20220;-78
2023/11/08 01:41:48;;;;;;;11.60;10.90;;;6.20;99.90;;;;;;4859232;29;20214;-78
2023/11/08 01:44:18;;;;;;;11.83;11.07;;;6.20;99.90;;;;;;4872349;29;20239;-79
2023/11/08 01:46:45;;;;;;;11.90;11.10;;;6.30;99.90;;;;;;4859925;29;20230;-77
2023/11/08 01:49:13;;;;;;;11.93;11.03;;;6.30;99.90;;;;;;4855185;29;20206;-78
2023/11/08 01:51:41;;;;;;;11.50;10.80;;;6.30;99.90;;;;;;4854710;29;20235;-78
2023/11/08 01:54:09;;;;;;;11.60;10.90;;;6.30;99.90;;;;;;4852693;29;20675;-78
2023/11/08 01:56:36;;;;;;;11.60;10.90;;;6.40;99.90;;;;;;4856142;29;20718;-78
2023/11/08 01:59:08;;;;;;;11.60;10.90;;;6.40;99.90;;;;;;4851597;29;20225;-77
2023/11/08 02:01:35;;;;;;;11.97;11.27;;;6.40;99.90;;;;;;4853487;29;20228;-77
2023/11/08 02:04:01;;;;;;;11.60;10.90;;;6.40;99.90;;;;;;4855327;29;20279;-77
2023/11/08 02:06:31;;;;;;;11.93;11.13;;;6.50;99.90;;;;;;4860411;29;20231;-78
2023/11/08 02:09:00;;;;;;;12.37;11.57;;;6.50;99.90;;;;;;4852499;29;20207;-78
2023/11/08 02:11:27;;;;;;;12.60;11.77;;;6.50;99.90;;;;;;4868924;29;20592;-78
2023/11/08 02:13:54;;;;;;;12.57;11.80;;;6.50;99.90;;;;;;4859813;29;20648;-78
2023/11/08 02:16:21;;;;;;;12.20;11.40;;;6.50;99.90;;;;;;4853505;29;20217;-78
2023/11/08 02:18:49;;;;;;;12.47;11.60;;;6.50;99.90;;;;;;4857614;29;20217;-77
2023/11/08 02:21:17;;;;;;;12.13;11.43;;;6.50;99.90;;;;;;4851895;29;20210;-78
2023/11/08 02:23:46;;;;;;;12.50;11.80;;;6.50;99.90;;;;;;4853261;29;20235;-77
2023/11/08 02:26:14;;;;;;;12.47;11.67;;;6.40;99.90;;;;;;4857550;29;20618;-78
2023/11/08 02:28:41;;;;;;;12.70;11.90;;;6.40;99.90;;;;;;4852360;29;20197;-78
2023/11/08 02:31:08;;;;;;;12.43;11.63;;;6.40;99.90;;;;;;4853370;29;20274;-78
2023/11/08 02:33:36;;;;;;;12.70;12.00;;;6.30;99.90;;;;;;4860174;29;20267;-79
2023/11/08 02:36:02;;;;;;;12.70;12.00;;;6.20;99.90;;;;;;4856828;29;20295;-79
2023/11/08 02:38:29;;;;;;;12.90;11.90;;;6.20;99.90;;;;;;4854009;29;20219;-78
2023/11/08 02:40:56;;;;;;;12.20;11.50;;;6.10;99.90;;;;;;4853099;29;20238;-78
2023/11/08 02:43:25;;;;;;;12.57;11.77;;;6.10;99.90;;;;;;4849612;29;20261;-78
2023/11/08 02:45:53;;;;;;;12.80;12.00;;;6.10;99.90;;;;;;4856155;29;20293;-77
2023/11/08 02:48:21;;;;;;;12.80;11.90;;;6.00;99.90;;;;;;4852664;29;20206;-77
2023/11/08 02:50:49;;;;;;;12.60;11.90;;;6.00;99.90;;;;;;4857746;29;20209;-77
2023/11/08 02:53:16;;;;;;;12.57;11.73;;;6.00;99.90;;;;;;4851038;29;20209;-78
2023/11/08 02:55:44;;;;;;;12.30;11.50;;;5.90;99.90;;;;;;4853672;29;20231;-77
2023/11/08 02:58:11;;;;;;;13.00;12.13;;;5.90;99.90;;;;;;4856522;29;20229;-78
2023/11/08 03:00:39;;;;;;;12.43;11.53;;;5.90;99.90;;;;;;4856157;29;20277;-78
2023/11/08 03:03:06;;;;;;;12.47;11.67;;;5.80;99.90;;;;;;4851469;29;20586;-78
2023/11/08 03:05:33;;;;;;;12.60;11.80;;;5.70;99.90;;;;;;4855752;29;20667;-78
2023/11/08 03:08:00;;;;;;;13.40;12.50;;;5.70;99.90;;;;;;4847834;29;20230;-78
2023/11/08 03:10:27;;;;;;;12.97;11.97;;;5.60;99.90;;;;;;4853132;29;20221;-78
2023/11/08 03:12:54;;;;;;;13.10;12.20;;;5.60;99.90;;;;;;4863528;29;20572;-77
2023/11/08 03:15:22;;;;;;;13.67;12.60;;;5.60;99.90;;;;;;4849808;29;20206;-78
2023/11/08 03:17:51;;;;;;;12.90;12.10;;;5.60;99.90;;;;;;4848759;29;20229;-78
2023/11/08 03:20:19;;;;;;;13.10;12.20;;;5.60;99.90;;;;;;4853607;29;20234;-78
2023/11/08 03:22:46;;;;;;;12.43;11.70;;;5.50;99.90;;;;;;4856011;29;20208;-78
2023/11/08 03:25:13;;;;;;;12.77;11.97;;;5.50;99.90;;;;;;4857539;29;20216;-77
2023/11/08 03:27:41;;;;;;;13.13;12.33;;;5.50;99.90;;;;;;4856793;29;20224;-79
2023/11/08 03:30:10;;;;;;;13.13;12.07;;;5.50;99.90;;;;;;4856318;29;20205;-78
2023/11/08 03:32:37;;;;;;;13.80;12.80;;;5.50;99.90;;;;;;4858103;29;20728;-77
2023/11/08 03:35:07;;;;;;;13.07;12.23;;;5.50;99.90;;;;;;4857704;29;20240;-78
2023/11/08 03:37:35;;;;;;;13.00;12.10;;;5.40;99.90;;;;;;4854688;29;20221;-77
2023/11/08 03:40:05;;;;;;;13.73;12.50;;;5.40;99.90;;;;;;4854893;29;20734;-78
2023/11/08 03:42:34;;;;;;;13.20;12.30;;;5.30;99.90;;;;;;4854337;29;20200;-77
2023/11/08 03:45:02;;;;;;;12.63;11.80;;;5.30;99.90;;;;;;4852806;29;20212;-78
2023/11/08 03:47:30;;;;;;;14.10;12.90;;;5.30;99.90;;;;;;4851331;29;20462;-78
2023/11/08 03:49:57;;;;;;;13.17;12.17;;;5.30;99.90;;;;;;4853880;29;20232;-78
2023/11/08 03:52:26;;;;;;;12.67;11.83;;;5.40;99.90;;;;;;4849919;29;20210;-82
2023/11/08 03:55:13;;;;;;;13.13;12.23;;;5.30;99.90;;;;;;4859774;29;20215;-83
2023/11/08 03:57:40;;;;;;;12.70;12.00;;;5.30;99.90;;;;;;4841972;29;20319;-81
2023/11/08 04:00:09;;;;;;;13.40;12.30;;;5.30;99.90;;;;;;4853642;29;20225;-82
2023/11/08 04:02:38;;;;;;;13.43;12.63;;;5.30;99.90;;;;;;4853502;29;20296;-82
2023/11/08 04:05:05;;;;;;;13.57;12.50;;;5.30;99.90;;;;;;4859036;29;20208;-82
2023/11/08 04:07:33;;;;;;;13.10;12.10;;;5.30;99.90;;;;;;4856094;29;20279;-82
2023/11/08 04:10:01;;;;;;;13.23;12.40;;;5.30;99.90;;;;;;4847372;29;20637;-82
2023/11/08 04:12:28;;;;;;;13.53;12.43;;;5.30;99.90;;;;;;4850187;29;20202;-82
2023/11/08 04:14:55;;;;;;;12.70;12.00;;;5.40;99.90;;;;;;4856555;29;20216;-83
2023/11/08 04:17:31;;;;;;;13.17;12.27;;;5.40;99.90;;;;;;4856571;29;20220;-83
2023/11/08 04:19:58;;;;;;;13.70;12.80;;;5.50;99.90;;;;;;4849493;29;20797;-80
2023/11/08 04:22:25;;;;;;;13.20;12.37;;;5.50;99.90;;;;;;4850891;29;20212;-80
2023/11/08 04:24:53;;;;;;;12.77;12.00;;;5.60;99.90;;;;;;4856069;29;20200;-81
2023/11/08 04:27:20;;;;;;;13.00;12.10;;;5.60;99.90;;;;;;4862028;29;20323;-79
2023/11/08 04:29:47;;;;;;;12.30;11.60;;;5.70;99.90;;;;;;4852583;29;20212;-77
2023/11/08 04:32:14;;;;;;;13.00;12.10;;;5.70;99.90;;;;;;4847812;29;20220;-78
2023/11/08 04:34:42;;;;;;;12.73;11.87;;;5.70;99.90;;;;;;4852190;29;20204;-78
2023/11/08 04:37:09;;;;;;;12.67;11.93;;;5.70;99.90;;;;;;4850672;29;20226;-77
2023/11/08 04:39:37;;;;;;;14.07;13.07;;;5.60;99.90;;;;;;4848938;29;20224;-77
2023/11/08 04:42:06;;;;;;;12.77;11.90;;;5.60;99.90;;;;;;4843372;29;20289;-77
2023/11/08 04:44:33;;;;;;;13.07;12.17;;;5.60;99.90;;;;;;4848418;29;20590;-77
2023/11/08 04:47:00;;;;;;;13.47;12.57;;;5.70;99.90;;;;;;4845007;29;20223;-77
2023/11/08 04:49:27;;;;;;;12.93;12.07;;;5.80;99.90;;;;;;4847770;29;20262;-77
2023/11/08 04:51:54;;;;;;;12.60;11.80;;;5.80;99.90;;;;;;4846409;29;20205;-75
2023/11/08 04:54:21;;;;;;;12.63;11.93;;;5.80;99.90;;;;;;4854791;29;20668;-80
2023/11/08 04:56:48;;;;;;;13.50;12.40;;;5.80;99.90;;;;;;4858304;29;20225;-79
2023/11/08 04:59:16;;;;;;;13.23;12.43;;;5.90;99.90;;;;;;4849032;29;20235;-76
2023/11/08 05:01:44;;;;;;;13.93;13.13;;;5.90;99.90;;;;;;4856186;29;20601;-78
2023/11/08 05:04:11;;;;;;;13.73;12.83;;;5.90;99.90;;;;;;4852486;29;20207;-77
2023/11/08 05:06:38;;;;;;;14.30;13.30;;;5.90;99.90;;;;;;4858005;29;20231;-77
2023/11/08 05:09:05;;;;;;;14.23;13.33;;;5.90;99.90;;;;;;4849599;29;20761;-78
2023/11/08 05:11:32;;;;;;;13.80;12.70;;;5.90;99.90;;;;;;4852693;29;20210;-77
2023/11/08 05:14:01;;;;;;;13.90;13.10;;;5.90;99.90;;;;;;4850292;29;20215;-77
2023/11/08 05:16:30;;;;;;;13.30;12.50;;;6.00;99.90;;;;;;4850263;29;20239;-77
2023/11/08 05:18:57;;;;;;;13.73;12.77;;;6.00;99.90;;;;;;4851488;29;20295;-78
2023/11/08 05:21:24;;;;;;;13.60;12.60;;;6.00;99.90;;;;;;4860751;29;20201;-77
2023/11/08 05:23:50;;;;;;;13.20;12.40;;;6.10;99.90;;;;;;4851626;29;20242;-77
2023/11/08 05:26:18;;;;;;;13.57;12.77;;;6.10;99.90;;;;;;4849582;29;20289;-78
2023/11/08 05:28:45;;;;;;;14.17;13.27;;;6.10;99.90;;;;;;4852785;29;20206;-77
2023/11/08 05:31:12;;;;;;;13.10;12.20;;;6.20;99.90;;;;;;4847374;29;20196;-77
2023/11/08 05:33:41;;;;;;;13.67;12.77;;;6.20;99.90;;;;;;4848356;29;20300;-77
2023/11/08 05:36:08;;;;;;;13.53;12.63;;;6.20;99.90;;;;;;4849350;29;20646;-77
2023/11/08 05:38:37;;;;;;;13.67;12.87;;;6.20;99.90;;;;;;4850275;29;20736;-77
2023/11/08 05:41:04;;;;;;;13.90;13.00;;;6.20;99.90;;;;;;4860728;29;20582;-77
2023/11/08 05:43:31;;;;;;;13.63;12.83;;;6.30;99.90;;;;;;4849954;29;20212;-77
2023/11/08 05:45:58;;;;;;;13.50;12.60;;;6.30;99.90;;;;;;4851203;29;20239;-78
2023/11/08 05:48:25;;;;;;;13.80;12.80;;;6.40;99.90;;;;;;4847135;29;20664;-78
2023/11/08 05:50:53;;;;;;;13.13;12.23;;;6.40;99.90;;;;;;4850432;29;20209;-77
2023/11/08 05:53:22;;;;;;;13.63;12.60;;;6.40;99.90;;;;;;4845276;29;20237;-77
2023/11/08 05:55:49;;;;;;;13.20;12.40;;;6.40;99.90;;;;;;4852875;29;20282;-77
2023/11/08 05:58:16;;;;;;;13.10;12.30;;;6.40;99.90;;;;;;4843819;29;20281;-77
2023/11/08 06:00:43;;;;;;;13.23;12.23;;;6.40;99.90;;;;;;4854271;29;20228;-78
2023/11/08 06:03:10;;;;;;;13.70;12.80;;;6.50;99.90;;;;;;4862192;29;20208;-76
2023/11/08 06:05:37;;;;;;;14.50;13.40;;;6.50;99.90;;;;;;4860975;29;20238;-78
2023/11/08 06:08:05;;;;;;;13.67;12.73;;;6.40;99.90;;;;;;4848693;29;20233;-77
2023/11/08 06:10:34;;;;;;;13.77;12.90;;;6.50;99.90;;;;;;4865481;29;20286;-78
2023/11/08 06:13:03;;;;;;;13.70;12.90;;;6.50;99.90;;;;;;4854831;29;20215;-84
2023/11/08 06:15:30;;;;;;;13.27;12.47;;;6.50;99.90;;;;;;4854551;29;20685;-81
2023/11/08 06:17:57;;;;;;;12.97;12.17;;;6.50;99.90;;;;;;4852987;29;20230;-80
2023/11/08 06:20:24;;;;;;;13.33;12.53;;;6.50;99.90;;;;;;4862795;29;20235;-81
2023/11/08 06:22:51;;;;;;;12.90;12.10;;;6.40;99.90;;;;;;4858090;29;20210;-81
2023/11/08 06:25:19;;;;;;;13.90;13.10;;;6.40;99.90;;;;;;4858490;29;20241;-81
2023/11/08 06:27:47;;;;;;;13.00;12.10;;;6.40;99.90;;;;;;4855827;29;20267;-81
2023/11/08 06:30:15;;;;;;;14.70;13.60;;;6.50;99.90;;;;;;4861213;29;20214;-81
2023/11/08 06:32:43;;;;;;;13.40;12.60;;;6.50;99.90;;;;;;4858445;29;20234;-81
2023/11/08 06:35:10;;;;;;;13.17;12.17;;;6.50;99.90;;;;;;4859138;29;20299;-81
2023/11/08 06:37:37;;;;;;;13.37;12.47;;;6.50;99.90;;;;;;4854676;29;20225;-82
2023/11/08 06:40:06;;;;;;;12.93;12.13;;;6.50;99.90;;;;;;4860364;29;20720;-81
2023/11/08 06:42:34;;;;;;;13.33;12.33;;;6.50;99.90;;;;;;4856012;29;20675;-82
2023/11/08 06:45:03;;;;;;;13.33;12.43;;;6.50;99.90;;;;;;4861204;29;20210;-82
2023/11/08 06:47:30;;;;;;;12.50;11.80;;;6.50;99.90;;;;;;4855493;29;20232;-82
2023/11/08 06:49:57;;;;;;;12.33;11.47;;;6.50;99.90;;;;;;4861660;29;20207;-81
2023/11/08 06:52:25;;;;;;;12.60;11.80;;;6.50;99.90;;;;;;4853102;29;20210;-79
2023/11/08 06:54:52;;;;;;;12.50;11.70;;;6.60;99.90;;;;;;4866205;29;20202;-77
2023/11/08 06:57:19;;;;;;;12.00;11.30;;;6.60;99.90;;;;;;4860725;29;20772;-78
2023/11/08 06:59:47;;;;;;;11.93;11.13;;;6.60;99.90;;;;;;4867257;29;20218;-78
2023/11/08 07:02:13;;;;;;;12.50;11.50;;;6.70;99.90;;;;;;4865946;29;20212;-77
2023/11/08 07:04:40;;;;;;;12.40;11.60;;;6.60;99.90;;;;;;4867042;29;20209;-79
2023/11/08 07:07:10;;;;;;;12.30;11.50;;;6.70;99.90;;;;;;4856605;29;20655;-77
2023/11/08 07:09:37;;;;;;;11.60;10.90;;;6.70;99.90;;;;;;4861378;29;20235;-78
2023/11/08 07:12:04;;;;;;;11.97;11.27;;;6.80;99.90;;;;;;4865850;29;20237;-78
2023/11/08 07:14:31;;;;;;;9.97;9.33;;;6.90;99.90;;;;;;4860239;29;20204;-79
2023/11/08 07:16:59;;;;;;;9.60;8.90;;;7.00;99.90;;;;;;4866622;29;20232;-78
2023/11/08 07:19:27;;;;;;;9.57;8.87;;;7.10;99.90;;;;;;4855416;29;20228;-78
2023/11/08 07:21:54;;;;;;;11.70;11.00;;;7.10;99.90;;;;;;4854645;29;20218;-77
2023/11/08 07:24:22;;;;;;;11.77;10.97;;;7.20;99.90;;;;;;4853565;29;20209;-77
2023/11/08 07:26:49;;;;;;;9.27;8.67;;;7.30;99.90;;;;;;4861892;29;20248;-78
2023/11/08 07:29:16;;;;;;;8.70;8.10;;;7.40;99.90;;;;;;4864248;29;20608;-77
2023/11/08 07:31:43;;;;;;;11.40;10.60;;;7.50;99.90;;;;;;4854378;29;20213;-77
2023/11/08 07:34:12;;;;;;;10.07;9.47;;;7.60;99.90;;;;;;4863803;29;20212;-78
2023/11/08 07:36:39;;;;;;;11.90;11.20;;;7.70;99.90;;;;;;4859530;29;20225;-77
2023/11/08 07:39:06;;;;;;;11.80;10.90;;;7.70;99.90;;;;;;4866543;29;20210;-78
2023/11/08 07:41:33;;;;;;;11.07;10.23;;;7.80;99.90;;;;;;4854938;29;20241;-78
2023/11/08 07:44:02;;;;;;;11.40;10.70;;;7.80;99.90;;;;;;4862605;29;20216;-78
2023/11/08 07:46:29;;;;;;;12.00;11.10;;;7.80;99.90;;;;;;4863860;29;20253;-78
2023/11/08 07:48:56;;;;;;;11.27;10.57;;;7.90;99.90;;;;;;4863166;29;20198;-78
2023/11/08 07:51:25;;;;;;;11.03;10.33;;;8.10;99.90;;;;;;4856518;29;20203;-78
2023/11/08 07:53:56;;;;;;;11.80;11.00;;;8.10;99.90;;;;;;4854818;29;20213;-78
2023/11/08 07:56:23;;;;;;;11.90;11.10;;;8.20;99.90;;;;;;4865976;29;20289;-79
2023/11/08 07:58:50;;;;;;;11.00;10.33;;;8.20;99.90;;;;;;4857892;29;20638;-82
2023/11/08 08:01:17;;;;;;;11.30;10.60;;;8.30;99.90;;;;;;4858727;29;20276;-82
2023/11/08 08:03:45;;;;;;;11.33;10.67;;;8.30;99.90;;;;;;4861750;29;20210;-81
2023/11/08 08:06:12;;;;;;;11.60;10.90;;;8.40;99.90;;;;;;4856550;29;20703;-82
2023/11/08 08:08:40;;;;;;;11.30;10.60;;;8.70;99.90;;;;;;4855108;29;20683;-82
2023/11/08 08:11:07;;;;;;;11.03;10.33;;;9.20;99.90;;;;;;4862351;29;20213;-82
2023/11/08 08:13:34;;;;;;;11.67;10.77;;;9.50;99.90;;;;;;4859250;29;20214;-82
2023/11/08 08:16:02;;;;;;;10.70;10.00;;;9.70;99.90;;;;;;4862330;29;20230;-82
2023/11/08 08:18:33;;;;;;;4.60;4.30;;;9.90;99.90;;;;;;4852053;29;20207;-82
2023/11/08 08:21:13;;;;;;;10.20;9.60;;;9.80;99.90;;;;;;4853360;29;20633;-82
2023/11/08 08:24:03;;;;;;;10.23;9.60;;;9.70;99.90;;;;;;4854626;29;20209;-82
2023/11/08 08:26:31;;;;;;;11.07;10.27;;;9.60;99.90;;;;;;4830298;29;20325;-82
2023/11/08 08:28:58;;;;;;;10.20;9.50;;;9.60;99.90;;;;;;4860846;29;20205;-82
2023/11/08 08:31:27;;;;;;;11.10;10.40;;;9.90;99.90;;;;;;4862431;29;20204;-82
2023/11/08 08:33:58;;;;;;;11.33;10.43;;;10.10;99.90;;;;;;4860685;29;20274;-83
2023/11/08 08:36:26;;;;;;;10.60;9.87;;;10.50;99.90;;;;;;4864341;29;20291;-82
2023/11/08 08:39:08;;;;;;;10.10;9.50;;;11.00;99.90;;;;;;4862351;29;20212;-83
2023/11/08 08:41:53;;;;;;;10.73;9.90;;;11.40;99.90;;;;;;4857165;29;20248;-83
2023/11/08 08:44:24;;;;;;;10.80;10.10;;;11.80;99.90;;;;;;4869802;29;20318;-83
2023/11/08 08:46:52;;;;;;;10.90;10.30;;;12.00;99.90;;;;;;4865234;29;20235;-82
2023/11/08 08:49:21;;;;;;;10.60;10.00;;;12.00;99.90;;;;;;4857544;29;20650;-82
2023/11/08 08:51:49;;;;;;;10.50;9.90;;;12.10;99.90;;;;;;4854569;29;20210;-83
2023/11/08 08:54:18;;;;;;;10.63;9.97;;;12.20;99.90;;;;;;4869382;29;20203;-83
2023/11/08 08:56:48;;;;;;;10.17;9.47;;;12.20;99.90;;;;;;4863172;29;20223;-82
2023/11/08 08:59:15;;;;;;;9.93;9.33;;;12.10;99.90;;;;;;4856642;29;20675;-82
2023/11/08 09:01:46;;;;;;;10.30;9.70;;;12.10;99.90;;;;;;4862993;29;20265;-82
2023/11/08 09:04:19;;;;;;;11.00;10.40;;;12.10;99.90;;;;;;4857504;29;20213;-82
2023/11/08 09:06:51;;;;;;;10.47;9.77;;;12.10;99.90;;;;;;4862168;29;20745;-82
2023/11/08 09:09:21;;;;;;;10.20;9.60;;;12.10;99.90;;;;;;4864507;29;20210;-83
2023/11/08 09:11:50;;;;;;;10.10;9.50;;;11.90;99.90;;;;;;4857345;29;20202;-80
2023/11/08 09:14:18;;;;;;;10.30;9.70;;;11.90;99.90;;;;;;4865022;29;20202;-78
2023/11/08 09:16:45;;;;;;;10.20;9.60;;;11.80;99.90;;;;;;4868876;29;20229;-79
2023/11/08 09:19:11;;;;;;;10.50;9.90;;;11.70;99.90;;;;;;4858379;29;20197;-78
2023/11/08 09:21:38;;;;;;;10.17;9.57;;;11.60;99.90;;;;;;4867892;29;20314;-77
2023/11/08 09:24:06;;;;;;;10.30;9.70;;;11.50;99.90;;;;;;4867090;29;20212;-78
2023/11/08 09:26:34;;;;;;;10.30;9.70;;;11.50;99.90;;;;;;4865477;29;20251;-78
2023/11/08 09:29:02;;;;;;;9.93;9.43;;;11.50;99.90;;;;;;4866267;29;20219;-79
2023/11/08 09:31:28;;;;;;;10.10;9.60;;;11.40;99.90;;;;;;4865837;29;20216;-77
2023/11/08 09:33:56;;;;;;;9.53;9.00;;;11.30;99.90;;;;;;4867087;29;20626;-79
2023/11/08 09:36:25;;;;;;;9.00;8.50;;;11.20;99.90;;;;;;4852485;29;20256;-77
2023/11/08 09:38:52;;;;;;;9.27;8.77;;;11.20;99.90;;;;;;4865659;29;20235;-77
2023/11/08 09:41:19;;;;;;;9.10;8.50;;;11.20;99.90;;;;;;4864074;29;20237;-77
2023/11/08 09:43:47;;;;;;;8.83;8.33;;;11.30;99.90;;;;;;4858398;29;20687;-77
2023/11/08 09:46:16;;;;;;;9.50;8.60;;;11.30;99.90;;;;;;4861215;29;20224;-78
2023/11/08 09:48:45;;;;;;;9.03;8.53;;;11.30;99.90;;;;;;4857356;29;20205;-77
2023/11/08 09:51:12;;;;;;;8.97;8.47;;;11.40;99.90;;;;;;4864276;29;20259;-77
2023/11/08 09:53:39;;;;;;;8.83;8.27;;;11.40;99.90;;;;;;4859987;29;20207;-77
2023/11/08 09:56:08;;;;;;;9.07;8.57;;;11.40;99.90;;;;;;4863844;29;20788;-77
2023/11/08 09:58:35;;;;;;;9.07;8.43;;;11.50;99.90;;;;;;4864662;29;20197;-77
2023/11/08 10:01:03;;;;;;;8.90;8.40;;;11.50;99.90;;;;;;4865118;29;20253;-78
2023/11/08 10:03:34;;;;;;;9.00;8.50;;;11.50;99.90;;;;;;4858034;29;20269;-78
2023/11/08 10:06:01;;;;;;;8.80;8.30;;;11.40;99.90;;;;;;4860032;29;20319;-77
2023/11/08 10:08:28;;;;;;;8.80;8.30;;;11.40;99.90;;;;;;4852605;29;20261;-78
2023/11/08 10:10:59;;;;;;;8.80;8.30;;;11.40;99.90;;;;;;4865411;29;20204;-77
2023/11/08 10:13:42;;;;;;;8.80;8.30;;;11.40;99.90;;;;;;4862144;29;20236;-77
2023/11/08 10:16:09;;;;;;;9.10;8.50;;;11.40;99.90;;;;;;4861017;29;20256;-77
2023/11/08 10:18:37;;;;;;;8.83;8.20;;;11.40;99.90;;;;;;4860485;29;20711;-77
2023/11/08 10:21:15;;;;;;;8.90;8.40;;;11.50;99.90;;;;;;4858777;29;20263;-78
2023/11/08 10:23:43;;;;;;;8.87;8.37;;;11.50;99.90;;;;;;4856605;29;20210;-77
2023/11/08 10:26:15;;;;;;;8.40;7.90;;;11.50;99.90;;;;;;4859212;29;20236;-78
2023/11/08 10:28:58;;;;;;;8.47;8.00;;;11.50;99.90;;;;;;4861287;29;20693;-77
2023/11/08 10:31:33;;;;;;;9.30;8.70;;;11.40;99.90;;;;;;4860632;29;20651;-77
2023/11/08 10:34:02;;;;;;;8.83;8.33;;;11.40;99.90;;;;;;4856992;29;20692;-78
2023/11/08 10:36:30;;;;;;;8.70;8.20;;;11.50;99.90;;;;;;4855127;29;20233;-77
2023/11/08 10:38:57;;;;;;;8.60;8.10;;;11.60;99.90;;;;;;4858768;29;20233;-77
2023/11/08 10:41:29;;;;;;;8.40;7.90;;;11.70;99.90;;;;;;4864433;29;20224;-79
2023/11/08 10:44:22;;;;;;;8.80;8.30;;;11.60;99.90;;;;;;4862407;29;20247;-77
2023/11/08 10:46:57;;;;;;;9.20;8.63;;;11.60;99.90;;;;;;4857337;29;20718;-77
2023/11/08 10:49:26;;;;;;;8.60;8.10;;;11.80;99.90;;;;;;4857680;29;20209;-77
2023/11/08 10:51:53;;;;;;;8.57;8.00;;;11.90;99.90;;;;;;4855532;29;20209;-77
2023/11/08 10:54:20;;;;;;;8.70;8.10;;;12.10;99.90;;;;;;4857191;29;20221;-77
2023/11/08 10:56:50;;;;;;;8.07;7.57;;;12.40;99.90;;;;;;4858633;29;20256;-78
2023/11/08 10:59:19;;;;;;;8.77;8.17;;;12.60;99.90;;;;;;4857424;29;20214;-77
2023/11/08 11:01:49;;;;;;;9.33;8.73;;;12.70;99.90;;;;;;4857800;29;20236;-77
2023/11/08 11:04:17;;;;;;;9.70;9.10;;;12.90;99.90;;;;;;4857785;29;20703;-78
2023/11/08 11:06:48;;;;;;;9.00;8.40;;;13.00;99.90;;;;;;4857571;29;20229;-77
2023/11/08 11:09:16;;;;;;;9.23;8.63;;;13.10;99.90;;;;;;4872265;29;20687;-77
2023/11/08 11:11:46;;;;;;;9.10;8.60;;;13.00;99.90;;;;;;4857111;29;20692;-77
2023/11/08 11:14:26;;;;;;;8.83;8.33;;;12.90;99.90;;;;;;4858447;29;20214;-77
2023/11/08 11:16:58;;;;;;;9.33;8.83;;;12.80;99.90;;;;;;4857780;29;20229;-78
2023/11/08 11:19:27;;;;;;;8.73;8.13;;;12.60;99.90;;;;;;4858170;29;20217;-78
2023/11/08 11:22:02;;;;;;;9.30;8.80;;;12.40;99.90;;;;;;4858920;29;20297;-77
2023/11/08 11:24:42;;;;;;;9.20;8.70;;;12.30;99.90;;;;;;4853172;29;20238;-77
2023/11/08 11:27:10;;;;;;;9.13;8.63;;;12.30;99.90;;;;;;4854931;29;20664;-77
2023/11/08 11:29:39;;;;;;;8.57;8.07;;;12.30;99.90;;;;;;4854903;29;20214;-78
2023/11/08 11:32:32;;;;;;;8.83;8.33;;;12.30;99.90;;;;;;4856974;29;20675;-77
2023/11/08 11:35:00;;;;;;;8.80;8.30;;;12.30;99.90;;;;;;4858422;29;20214;-77
2023/11/08 11:37:28;;;;;;;9.50;8.90;;;12.30;99.90;;;;;;4858038;29;20218;-77
2023/11/08 11:40:15;;;;;;;8.83;8.33;;;12.30;99.90;;;;;;4858238;29;20238;-77
2023/11/08 11:42:45;;;;;;;8.80;8.20;;;12.20;99.90;;;;;;4858002;29;20229;-77
2023/11/08 11:45:12;;;;;;;8.80;8.30;;;12.10;99.90;;;;;;4858786;29;20202;-77
2023/11/08 11:47:41;;;;;;;8.60;8.00;;;12.10;99.90;;;;;;4851087;29;20334;-77
2023/11/08 11:50:10;;;;;;;8.57;8.00;;;12.10;99.90;;;;;;4858530;29;20214;-77
2023/11/08 11:52:39;;;;;;;8.40;7.87;;;12.20;99.90;;;;;;4858417;29;20201;-77
2023/11/08 11:55:09;;;;;;;8.30;7.90;;;12.20;99.90;;;;;;4854828;29;20212;-77
2023/11/08 11:57:37;;;;;;;8.40;7.90;;;12.30;99.90;;;;;;4856499;29;20389;-77
2023/11/08 12:00:09;;;;;;;8.50;8.00;;;12.30;99.90;;;;;;4857087;29;20270;-78
2023/11/08 12:02:36;;;;;;;8.23;7.63;;;12.30;99.90;;;;;;4875371;29;20244;-77
2023/11/08 12:05:05;;;;;;;9.07;8.57;;;12.30;99.90;;;;;;4861315;29;20258;-77
2023/11/08 12:07:32;;;;;;;9.17;8.57;;;12.20;99.90;;;;;;4862430;29;20282;-77
2023/11/08 12:10:07;;;;;;;9.53;8.87;;;12.20;99.90;;;;;;4876711;29;20213;-77
2023/11/08 12:12:34;;;;;;;9.07;8.43;;;12.10;99.90;;;;;;4861304;29;20209;-77
2023/11/08 12:15:13;;;;;;;9.07;8.47;;;12.10;99.90;;;;;;4862000;29;20897;-77
2023/11/08 12:17:40;;;;;;;8.90;8.40;;;12.10;99.90;;;;;;4857015;29;20240;-78
2023/11/08 12:20:09;;;;;;;9.03;8.43;;;12.10;99.90;;;;;;4862119;29;20213;-77
2023/11/08 12:22:36;;;;;;;8.93;8.43;;;12.20;99.90;;;;;;4859185;29;20225;-77
2023/11/08 12:25:06;;;;;;;9.37;8.77;;;12.20;99.90;;;;;;4849624;29;20230;-79
2023/11/08 12:27:38;;;;;;;8.60;8.10;;;12.30;99.90;;;;;;4849605;29;20242;-80
2023/11/08 12:34:15;;;;;;;8.80;8.30;;;12.50;99.90;;;;;;4821391;29;20758;-79
2023/11/08 12:36:45;;;;;;;8.40;7.90;;;12.70;99.90;;;;;;4809083;29;20305;-79
2023/11/08 12:39:18;;;;;;;8.60;8.10;;;12.70;99.90;;;;;;4853069;29;20715;-79
2023/11/08 12:41:48;;;;;;;7.93;7.53;;;12.70;99.90;;;;;;4855492;29;20257;-80
2023/11/08 12:44:16;;;;;;;8.63;8.13;;;12.60;99.90;;;;;;4857362;29;20274;-79
2023/11/08 12:46:48;;;;;;;8.93;8.43;;;12.50;99.90;;;;;;4849191;29;20241;-79
2023/11/08 12:49:15;;;;;;;8.80;8.20;;;12.50;99.90;;;;;;4851281;29;20739;-79
2023/11/08 12:51:43;;;;;;;9.53;8.93;;;12.40;99.90;;;;;;4858139;29;20206;-78